sensor_id;sensor_type;location;lat;lon;timestamp;pressure;altitude;pressure_sealevel;temperature;humidity
69187;BME280;56301;56.864;60.554;2024-02-26T00:00:54;100368.59;;;24.91;19.52
69187;BME280;56301;56.864;60.554;2024-02-26T00:03:17;100371.44;;;24.90;19.41
69187;BME280;56301;56.864;60.554;2024-02-26T00:05:39;100371.72;;;24.87;19.80
69187;BME280;56301;56.864;60.554;2024-02-26T00:08:02;100359.19;;;24.86;19.63
69187;BME280;56301;56.864;60.554;2024-02-26T00:10:24;100363.75;;;24.85;19.88
69187;BME280;56301;56.864;60.554;2024-02-26T00:12:47;100358.34;;;24.85;19.30
69187;BME280;56301;56.864;60.554;2024-02-26T00:15:10;100351.25;;;24.84;20.10
69187;BME280;56301;56.864;60.554;2024-02-26T00:17:33;100353.78;;;24.86;19.33
69187;BME280;56301;56.864;60.554;2024-02-26T00:19:55;100350.91;;;24.87;19.29
69187;BME280;56301;56.864;60.554;2024-02-26T00:22:18;100357.91;;;24.90;19.29
69187;BME280;56301;56.864;60.554;2024-02-26T00:24:40;100357.91;;;24.90;19.28
69187;BME280;56301;56.864;60.554;2024-02-26T00:27:03;100359.59;;;24.91;18.92
69187;BME280;56301;56.864;60.554;2024-02-26T00:29:25;100351.06;;;24.95;18.59
69187;BME280;56301;56.864;60.554;2024-02-26T00:31:48;100350.22;;;24.95;18.50
69187;BME280;56301;56.864;60.554;2024-02-26T00:34:10;100346.63;;;24.94;18.58
69187;BME280;56301;56.864;60.554;2024-02-26T00:36:33;100353.91;;;24.94;18.16
69187;BME280;56301;56.864;60.554;2024-02-26T00:38:55;100340.38;;;24.94;18.68
69187;BME280;56301;56.864;60.554;2024-02-26T00:41:18;100335.78;;;24.94;18.73
69187;BME280;56301;56.864;60.554;2024-02-26T00:43:40;100343.91;;;24.94;19.03
69187;BME280;56301;56.864;60.554;2024-02-26T00:46:03;100349.03;;;24.97;18.89
69187;BME280;56301;56.864;60.554;2024-02-26T00:48:25;100341.38;;;24.93;18.65
69187;BME280;56301;56.864;60.554;2024-02-26T00:50:48;100330.56;;;24.83;18.56
69187;BME280;56301;56.864;60.554;2024-02-26T00:53:10;100336.41;;;24.88;18.39
69187;BME280;56301;56.864;60.554;2024-02-26T00:55:32;100330.13;;;24.88;18.70
69187;BME280;56301;56.864;60.554;2024-02-26T00:57:55;100332.13;;;24.86;18.75
69187;BME280;56301;56.864;60.554;2024-02-26T01:00:17;100327.72;;;24.85;18.57
69187;BME280;56301;56.864;60.554;2024-02-26T01:02:40;100328.72;;;24.84;18.31
69187;BME280;56301;56.864;60.554;2024-02-26T01:05:02;100334.84;;;24.86;18.25
69187;BME280;56301;56.864;60.554;2024-02-26T01:07:25;100331.97;;;24.87;18.75
69187;BME280;56301;56.864;60.554;2024-02-26T01:09:47;100333.69;;;24.88;18.35
69187;BME280;56301;56.864;60.554;2024-02-26T01:12:10;100337.38;;;24.87;18.56
69187;BME280;56301;56.864;60.554;2024-02-26T01:14:32;100334.84;;;24.86;18.44
69187;BME280;56301;56.864;60.554;2024-02-26T01:16:55;100335.84;;;24.85;18.40
69187;BME280;56301;56.864;60.554;2024-02-26T01:19:17;100342.97;;;24.86;17.99
69187;BME280;56301;56.864;60.554;2024-02-26T01:21:39;100340.41;;;24.84;18.55
69187;BME280;56301;56.864;60.554;2024-02-26T01:24:02;100345.50;;;24.87;19.21
69187;BME280;56301;56.864;60.554;2024-02-26T01:26:24;100331.56;;;24.82;18.55
69187;BME280;56301;56.864;60.554;2024-02-26T01:28:47;100334.38;;;24.90;18.77
69187;BME280;56301;56.864;60.554;2024-02-26T01:31:10;100340.81;;;24.89;18.59
69187;BME280;56301;56.864;60.554;2024-02-26T01:33:32;100339.25;;;24.87;18.46
69187;BME280;56301;56.864;60.554;2024-02-26T01:35:55;100350.91;;;24.87;18.66
69187;BME280;56301;56.864;60.554;2024-02-26T01:38:17;100334.16;;;24.84;19.03
69187;BME280;56301;56.864;60.554;2024-02-26T01:40:40;100336.97;;;24.82;18.50
69187;BME280;56301;56.864;60.554;2024-02-26T01:43:02;100334.44;;;24.81;19.15
69187;BME280;56301;56.864;60.554;2024-02-26T01:45:25;100341.84;;;24.79;18.70
69187;BME280;56301;56.864;60.554;2024-02-26T01:47:49;100342.84;;;24.78;18.62
69187;BME280;56301;56.864;60.554;2024-02-26T01:50:12;100350.69;;;24.81;18.19
69187;BME280;56301;56.864;60.554;2024-02-26T01:52:34;100344.81;;;24.85;18.01
69187;BME280;56301;56.864;60.554;2024-02-26T01:54:57;100346.50;;;24.86;17.96
69187;BME280;56301;56.864;60.554;2024-02-26T01:57:19;100353.50;;;24.89;17.86
69187;BME280;56301;56.864;60.554;2024-02-26T01:59:42;100349.78;;;24.90;17.81
69187;BME280;56301;56.864;60.554;2024-02-26T02:02:05;100351.47;;;24.91;17.19
69187;BME280;56301;56.864;60.554;2024-02-26T02:04:29;100347.78;;;24.92;17.56
69187;BME280;56301;56.864;60.554;2024-02-26T02:06:52;100357.63;;;24.93;17.43
69187;BME280;56301;56.864;60.554;2024-02-26T02:09:14;100352.34;;;24.91;16.69
69187;BME280;56301;56.864;60.554;2024-02-26T02:11:37;100356.91;;;24.91;17.50
69187;BME280;56301;56.864;60.554;2024-02-26T02:14:00;100351.47;;;24.91;17.29
69187;BME280;56301;56.864;60.554;2024-02-26T02:16:22;100351.47;;;24.91;17.50
69187;BME280;56301;56.864;60.554;2024-02-26T02:18:45;100354.91;;;24.93;17.33
69187;BME280;56301;56.864;60.554;2024-02-26T02:21:07;100352.34;;;24.91;17.25
69187;BME280;56301;56.864;60.554;2024-02-26T02:23:30;100332.53;;;24.91;17.10
69187;BME280;56301;56.864;60.554;2024-02-26T02:25:52;100355.19;;;24.90;16.76
69187;BME280;56301;56.864;60.554;2024-02-26T02:28:15;100351.81;;;24.88;16.95
69187;BME280;56301;56.864;60.554;2024-02-26T02:30:37;100351.25;;;24.84;17.17
69187;BME280;56301;56.864;60.554;2024-02-26T02:33:00;100352.38;;;24.82;17.20
69187;BME280;56301;56.864;60.554;2024-02-26T02:35:22;100357.78;;;24.82;17.08
69187;BME280;56301;56.864;60.554;2024-02-26T02:37:45;100352.38;;;24.82;16.78
69187;BME280;56301;56.864;60.554;2024-02-26T02:40:08;100352.66;;;24.79;17.05
69187;BME280;56301;56.864;60.554;2024-02-26T02:42:30;100352.66;;;24.79;16.30
69187;BME280;56301;56.864;60.554;2024-02-26T02:44:53;100346.97;;;24.82;17.17
69187;BME280;56301;56.864;60.554;2024-02-26T02:47:15;100334.16;;;24.84;17.14
69187;BME280;56301;56.864;60.554;2024-02-26T02:49:38;100337.81;;;24.83;16.59
69187;BME280;56301;56.864;60.554;2024-02-26T02:52:00;100333.25;;;24.83;17.02
69187;BME280;56301;56.864;60.554;2024-02-26T02:54:23;100333.97;;;24.85;16.88
69187;BME280;56301;56.864;60.554;2024-02-26T02:56:45;100336.25;;;24.90;16.41
69187;BME280;56301;56.864;60.554;2024-02-26T02:59:07;100336.97;;;24.92;15.76
69187;BME280;56301;56.864;60.554;2024-02-26T03:01:30;100327.84;;;24.93;16.62
69187;BME280;56301;56.864;60.554;2024-02-26T03:03:52;100339.22;;;24.96;16.12
69187;BME280;56301;56.864;60.554;2024-02-26T03:06:15;100331.25;;;24.95;15.46
69187;BME280;56301;56.864;60.554;2024-02-26T03:08:37;100331.94;;;24.97;16.22
69187;BME280;56301;56.864;60.554;2024-02-26T03:11:00;100333.25;;;24.93;15.96
69187;BME280;56301;56.864;60.554;2024-02-26T03:13:22;100337.09;;;24.90;16.50
69187;BME280;56301;56.864;60.554;2024-02-26T03:15:45;100338.25;;;24.88;16.36
69187;BME280;56301;56.864;60.554;2024-02-26T03:18:07;100343.53;;;24.89;16.38
69187;BME280;56301;56.864;60.554;2024-02-26T03:20:30;100337.13;;;24.81;15.72
69187;BME280;56301;56.864;60.554;2024-02-26T03:22:52;100325.47;;;24.61;16.61
69187;BME280;56301;56.864;60.554;2024-02-26T03:25:15;100318.19;;;24.71;16.15
69187;BME280;56301;56.864;60.554;2024-02-26T03:27:37;100331.28;;;24.76;16.54
69187;BME280;56301;56.864;60.554;2024-02-26T03:30:00;100317.34;;;24.80;16.47
69187;BME280;56301;56.864;60.554;2024-02-26T03:32:22;100311.88;;;24.90;17.05
69187;BME280;56301;56.864;60.554;2024-02-26T03:34:45;100313.91;;;24.88;17.11
69187;BME280;56301;56.864;60.554;2024-02-26T03:37:07;100309.03;;;24.91;18.05
69187;BME280;56301;56.864;60.554;2024-02-26T03:39:30;100316.84;;;24.94;17.51
69187;BME280;56301;56.864;60.554;2024-02-26T03:41:52;100321.84;;;24.99;17.63
69187;BME280;56301;56.864;60.554;2024-02-26T03:44:14;100332.97;;;24.96;18.20
69187;BME280;56301;56.864;60.554;2024-02-26T03:46:37;100327.84;;;24.93;18.75
69187;BME280;56301;56.864;60.554;2024-02-26T03:49:00;100338.38;;;24.96;18.73
69187;BME280;56301;56.864;60.554;2024-02-26T03:51:22;100339.06;;;24.98;18.77
69187;BME280;56301;56.864;60.554;2024-02-26T03:53:44;100329.09;;;24.98;18.55
69187;BME280;56301;56.864;60.554;2024-02-26T03:56:07;100341.47;;;25.01;18.27
69187;BME280;56301;56.864;60.554;2024-02-26T03:58:29;100333.22;;;25.03;18.86
69187;BME280;56301;56.864;60.554;2024-02-26T04:00:52;100328.50;;;25.05;18.24
69187;BME280;56301;56.864;60.554;2024-02-26T04:03:14;100330.34;;;25.04;18.93
69187;BME280;56301;56.864;60.554;2024-02-26T04:05:37;100331.06;;;25.06;18.41
69187;BME280;56301;56.864;60.554;2024-02-26T04:07:59;100336.78;;;25.03;18.71
69187;BME280;56301;56.864;60.554;2024-02-26T04:10:21;100329.97;;;24.99;18.93
69187;BME280;56301;56.864;60.554;2024-02-26T04:12:44;100338.09;;;24.99;19.15
69187;BME280;56301;56.864;60.554;2024-02-26T04:15:07;100328.94;;;25.00;19.00
69187;BME280;56301;56.864;60.554;2024-02-26T04:17:30;100324.53;;;24.99;19.21
69187;BME280;56301;56.864;60.554;2024-02-26T04:19:52;100319.41;;;24.96;18.74
69187;BME280;56301;56.864;60.554;2024-02-26T04:22:15;100333.50;;;25.00;18.82
69187;BME280;56301;56.864;60.554;2024-02-26T04:24:37;100323.69;;;24.98;18.89
69187;BME280;56301;56.864;60.554;2024-02-26T04:26:59;100337.53;;;24.95;18.81
69187;BME280;56301;56.864;60.554;2024-02-26T04:29:22;100332.97;;;24.96;18.97
69187;BME280;56301;56.864;60.554;2024-02-26T04:31:45;100330.94;;;24.98;18.88
69187;BME280;56301;56.864;60.554;2024-02-26T04:34:07;100329.25;;;24.97;19.41
69187;BME280;56301;56.864;60.554;2024-02-26T04:36:30;100337.38;;;24.97;19.30
69187;BME280;56301;56.864;60.554;2024-02-26T04:38:52;100332.09;;;24.95;19.28
69187;BME280;56301;56.864;60.554;2024-02-26T04:41:15;100329.53;;;24.94;18.88
69187;BME280;56301;56.864;60.554;2024-02-26T04:43:37;100340.06;;;24.97;18.91
69187;BME280;56301;56.864;60.554;2024-02-26T04:46:00;100340.50;;;25.02;18.75
69187;BME280;56301;56.864;60.554;2024-02-26T04:48:22;100330.66;;;25.01;19.13
69187;BME280;56301;56.864;60.554;2024-02-26T04:50:45;100327.09;;;25.01;19.49
69187;BME280;56301;56.864;60.554;2024-02-26T04:53:07;100325.22;;;25.01;19.26
69187;BME280;56301;56.864;60.554;2024-02-26T04:55:30;100321.00;;;24.98;19.15
69187;BME280;56301;56.864;60.554;2024-02-26T04:57:52;100327.25;;;24.99;19.75
69187;BME280;56301;56.864;60.554;2024-02-26T05:00:15;100321.84;;;24.99;19.20
69187;BME280;56301;56.864;60.554;2024-02-26T05:02:37;100324.53;;;24.99;19.50
69187;BME280;56301;56.864;60.554;2024-02-26T05:05:00;100321.97;;;24.97;19.01
69187;BME280;56301;56.864;60.554;2024-02-26T05:07:22;100327.25;;;24.99;19.46
69187;BME280;56301;56.864;60.554;2024-02-26T05:09:45;100330.94;;;24.98;19.51
69187;BME280;56301;56.864;60.554;2024-02-26T05:12:08;100331.81;;;24.98;19.37
69187;BME280;56301;56.864;60.554;2024-02-26T05:14:31;100334.81;;;24.95;19.47
69187;BME280;56301;56.864;60.554;2024-02-26T05:16:53;100336.69;;;24.95;18.91
69187;BME280;56301;56.864;60.554;2024-02-26T05:19:16;100337.53;;;24.95;19.22
69187;BME280;56301;56.864;60.554;2024-02-26T05:21:38;100333.97;;;24.95;19.60
69187;BME280;56301;56.864;60.554;2024-02-26T05:24:00;100340.38;;;24.94;19.52
69187;BME280;56301;56.864;60.554;2024-02-26T05:26:23;100337.66;;;24.94;18.96
69187;BME280;56301;56.864;60.554;2024-02-26T05:28:45;100334.94;;;24.94;19.54
69187;BME280;56301;56.864;60.554;2024-02-26T05:31:08;100333.09;;;24.94;19.16
69187;BME280;56301;56.864;60.554;2024-02-26T05:33:34;100332.97;;;24.96;19.22
69187;BME280;56301;56.864;60.554;2024-02-26T05:35:57;100337.53;;;24.95;19.08
69187;BME280;56301;56.864;60.554;2024-02-26T05:38:19;100339.06;;;24.98;19.92
69187;BME280;56301;56.864;60.554;2024-02-26T05:40:42;100332.66;;;24.99;18.97
69187;BME280;56301;56.864;60.554;2024-02-26T05:43:04;100334.38;;;25.00;19.64
69187;BME280;56301;56.864;60.554;2024-02-26T05:45:27;100337.06;;;25.00;19.66
69187;BME280;56301;56.864;60.554;2024-02-26T05:47:49;100327.09;;;25.01;19.40
69187;BME280;56301;56.864;60.554;2024-02-26T05:50:12;100336.06;;;25.01;19.32
69187;BME280;56301;56.864;60.554;2024-02-26T05:52:34;100317.81;;;25.03;19.49
69187;BME280;56301;56.864;60.554;2024-02-26T05:54:56;100316.81;;;25.04;19.19
69187;BME280;56301;56.864;60.554;2024-02-26T05:57:19;100330.34;;;25.04;19.65
69187;BME280;56301;56.864;60.554;2024-02-26T05:59:41;100322.22;;;25.04;18.99
69187;BME280;56301;56.864;60.554;2024-02-26T06:02:04;100308.56;;;25.06;18.92
69187;BME280;56301;56.864;60.554;2024-02-26T06:04:26;100307.00;;;25.03;18.92
69187;BME280;56301;56.864;60.554;2024-02-26T06:06:49;100307.00;;;25.03;19.67
69187;BME280;56301;56.864;60.554;2024-02-26T06:09:11;100308.00;;;25.02;19.63
69187;BME280;56301;56.864;60.554;2024-02-26T06:11:34;100309.84;;;25.02;19.58
69187;BME280;56301;56.864;60.554;2024-02-26T06:13:56;100325.22;;;25.01;18.88
69187;BME280;56301;56.864;60.554;2024-02-26T06:16:18;100321.53;;;25.02;19.17
69187;BME280;56301;56.864;60.554;2024-02-26T06:18:41;100319.53;;;25.04;19.82
69187;BME280;56301;56.864;60.554;2024-02-26T06:21:03;100316.06;;;25.21;19.76
69187;BME280;56301;56.864;60.554;2024-02-26T06:23:26;100329.44;;;25.33;19.46
69187;BME280;56301;56.864;60.554;2024-02-26T06:25:48;100314.66;;;25.45;18.38
69187;BME280;56301;56.864;60.554;2024-02-26T06:28:11;100314.16;;;25.59;19.22
69187;BME280;56301;56.864;60.554;2024-02-26T06:30:33;100316.97;;;25.67;18.34
69187;BME280;56301;56.864;60.554;2024-02-26T06:32:56;100316.63;;;25.80;19.32
69187;BME280;56301;56.864;60.554;2024-02-26T06:35:18;100322.53;;;25.93;18.72
69187;BME280;56301;56.864;60.554;2024-02-26T06:37:41;100311.84;;;26.10;19.13
69187;BME280;56301;56.864;60.554;2024-02-26T06:40:03;100309.91;;;26.20;18.40
69187;BME280;56301;56.864;60.554;2024-02-26T06:42:26;100302.66;;;26.29;18.96
69187;BME280;56301;56.864;60.554;2024-02-26T06:44:48;100302.06;;;26.35;19.31
69187;BME280;56301;56.864;60.554;2024-02-26T06:47:11;100301.56;;;26.39;19.33
69187;BME280;56301;56.864;60.554;2024-02-26T06:49:33;100307.25;;;26.46;18.89
69187;BME280;56301;56.864;60.554;2024-02-26T06:51:55;100307.31;;;26.54;18.62
69187;BME280;56301;56.864;60.554;2024-02-26T06:54:18;100296.22;;;26.66;18.56
69187;BME280;56301;56.864;60.554;2024-02-26T06:56:40;100298.28;;;26.72;18.20
69187;BME280;56301;56.864;60.554;2024-02-26T06:59:03;100285.09;;;26.77;18.07
69187;BME280;56301;56.864;60.554;2024-02-26T07:01:25;100287.50;;;26.80;18.46
69187;BME280;56301;56.864;60.554;2024-02-26T07:03:48;100279.84;;;26.83;18.72
69187;BME280;56301;56.864;60.554;2024-02-26T07:06:10;100280.72;;;26.84;18.25
69187;BME280;56301;56.864;60.554;2024-02-26T07:08:33;100278.53;;;26.87;18.82
69187;BME280;56301;56.864;60.554;2024-02-26T07:10:55;100277.34;;;26.90;18.39
69187;BME280;56301;56.864;60.554;2024-02-26T07:13:18;100279.91;;;26.92;17.77
69187;BME280;56301;56.864;60.554;2024-02-26T07:15:41;100278.41;;;26.97;18.50
69187;BME280;56301;56.864;60.554;2024-02-26T07:18:03;100276.38;;;26.99;17.75
69187;BME280;56301;56.864;60.554;2024-02-26T07:20:26;100279.78;;;27.01;18.64
69187;BME280;56301;56.864;60.554;2024-02-26T07:22:48;100268.91;;;27.01;17.87
69187;BME280;56301;56.864;60.554;2024-02-26T07:25:11;100274.19;;;27.03;18.36
69187;BME280;56301;56.864;60.554;2024-02-26T07:27:33;100270.25;;;26.97;17.84
69187;BME280;56301;56.864;60.554;2024-02-26T07:29:56;100264.50;;;27.00;18.54
69187;BME280;56301;56.864;60.554;2024-02-26T07:32:18;100256.00;;;26.95;18.75
69187;BME280;56301;56.864;60.554;2024-02-26T07:34:41;100267.84;;;26.94;18.81
69187;BME280;56301;56.864;60.554;2024-02-26T07:37:03;100262.41;;;26.94;18.91
69187;BME280;56301;56.864;60.554;2024-02-26T07:39:26;100249.19;;;26.91;18.98
69187;BME280;56301;56.864;60.554;2024-02-26T07:41:49;100243.22;;;26.87;18.67
69187;BME280;56301;56.864;60.554;2024-02-26T07:44:11;100246.94;;;26.86;18.20
69187;BME280;56301;56.864;60.554;2024-02-26T07:46:34;100243.38;;;26.86;18.42
69187;BME280;56301;56.864;60.554;2024-02-26T07:48:56;100246.09;;;26.86;18.59
69187;BME280;56301;56.864;60.554;2024-02-26T07:51:18;100243.38;;;26.86;18.92
69187;BME280;56301;56.864;60.554;2024-02-26T07:53:41;100243.06;;;26.89;18.73
69187;BME280;56301;56.864;60.554;2024-02-26T07:56:04;100243.38;;;26.86;19.10
69187;BME280;56301;56.864;60.554;2024-02-26T07:58:26;100241.34;;;26.88;19.09
69187;BME280;56301;56.864;60.554;2024-02-26T08:00:49;100237.31;;;26.92;18.29
69187;BME280;56301;56.864;60.554;2024-02-26T08:03:11;100246.13;;;26.94;18.79
69187;BME280;56301;56.864;60.554;2024-02-26T08:05:34;100237.97;;;26.94;18.90
69187;BME280;56301;56.864;60.554;2024-02-26T08:07:56;100229.81;;;26.94;18.36
69187;BME280;56301;56.864;60.554;2024-02-26T08:10:19;100232.22;;;26.97;18.51
69187;BME280;56301;56.864;60.554;2024-02-26T08:12:41;100227.81;;;26.96;18.31
69187;BME280;56301;56.864;60.554;2024-02-26T08:15:04;100220.16;;;26.92;18.18
69187;BME280;56301;56.864;60.554;2024-02-26T08:17:27;100247.53;;;26.98;18.97
69187;BME280;56301;56.864;60.554;2024-02-26T08:19:49;100234.78;;;26.99;18.16
69187;BME280;56301;56.864;60.554;2024-02-26T08:22:12;100240.38;;;26.97;18.99
69187;BME280;56301;56.864;60.554;2024-02-26T08:24:34;100226.13;;;26.95;18.10
69187;BME280;56301;56.864;60.554;2024-02-26T08:26:57;100226.25;;;26.94;18.90
69187;BME280;56301;56.864;60.554;2024-02-26T08:29:19;100229.81;;;26.94;19.10
69187;BME280;56301;56.864;60.554;2024-02-26T08:31:41;100227.81;;;26.96;18.07
69187;BME280;56301;56.864;60.554;2024-02-26T08:34:04;100222.03;;;26.91;18.76
69187;BME280;56301;56.864;60.554;2024-02-26T08:36:26;100230.03;;;27.01;18.36
69187;BME280;56301;56.864;60.554;2024-02-26T08:38:49;100218.84;;;27.04;18.99
69187;BME280;56301;56.864;60.554;2024-02-26T08:41:11;100223.94;;;27.07;18.13
69187;BME280;56301;56.864;60.554;2024-02-26T08:43:34;100212.38;;;27.05;18.51
69187;BME280;56301;56.864;60.554;2024-02-26T08:45:57;100213.19;;;26.97;18.62
69187;BME280;56301;56.864;60.554;2024-02-26T08:48:19;100215.25;;;26.95;19.07
69187;BME280;56301;56.864;60.554;2024-02-26T08:50:42;100228.44;;;26.90;19.23
69187;BME280;56301;56.864;60.554;2024-02-26T08:53:04;100219.09;;;26.84;18.21
69187;BME280;56301;56.864;60.554;2024-02-26T08:55:27;100218.91;;;26.78;18.83
69187;BME280;56301;56.864;60.554;2024-02-26T08:57:49;100219.53;;;26.72;18.65
69187;BME280;56301;56.864;60.554;2024-02-26T09:00:12;100216.59;;;26.65;18.72
69187;BME280;56301;56.864;60.554;2024-02-26T09:02:35;100219.13;;;26.58;19.48
69187;BME280;56301;56.864;60.554;2024-02-26T09:04:57;100218.59;;;26.55;19.54
69187;BME280;56301;56.864;60.554;2024-02-26T09:07:20;100216.03;;;26.53;19.00
69187;BME280;56301;56.864;60.554;2024-02-26T09:09:43;100221.16;;;26.56;19.15
69187;BME280;56301;56.864;60.554;2024-02-26T09:12:05;100214.69;;;26.57;19.75
69187;BME280;56301;56.864;60.554;2024-02-26T09:14:28;100217.41;;;26.57;19.24
69187;BME280;56301;56.864;60.554;2024-02-26T09:16:50;100225.94;;;26.62;18.93
69187;BME280;56301;56.864;60.554;2024-02-26T09:19:13;100218.16;;;26.68;18.71
69187;BME280;56301;56.864;60.554;2024-02-26T09:21:36;100231.41;;;26.71;18.83
69187;BME280;56301;56.864;60.554;2024-02-26T09:23:58;100238.22;;;26.75;18.96
69187;BME280;56301;56.864;60.554;2024-02-26T09:26:21;100239.78;;;26.77;19.21
69187;BME280;56301;56.864;60.554;2024-02-26T09:28:44;100236.88;;;26.79;18.40
69187;BME280;56301;56.864;60.554;2024-02-26T09:31:07;100238.59;;;26.80;18.63
69187;BME280;56301;56.864;60.554;2024-02-26T09:33:29;100246.22;;;26.76;19.26
69187;BME280;56301;56.864;60.554;2024-02-26T09:35:51;100245.34;;;26.76;18.73
69187;BME280;56301;56.864;60.554;2024-02-26T09:38:14;100241.25;;;26.72;18.92
69187;BME280;56301;56.864;60.554;2024-02-26T09:40:36;100251.59;;;26.68;18.97
69187;BME280;56301;56.864;60.554;2024-02-26T09:42:59;100241.91;;;26.66;19.02
69187;BME280;56301;56.864;60.554;2024-02-26T09:45:23;100239.66;;;26.61;18.71
69187;BME280;56301;56.864;60.554;2024-02-26T09:47:47;100237.78;;;26.61;18.84
69187;BME280;56301;56.864;60.554;2024-02-26T09:50:10;100244.09;;;26.62;18.68
69187;BME280;56301;56.864;60.554;2024-02-26T09:52:33;100236.81;;;26.62;19.37
69187;BME280;56301;56.864;60.554;2024-02-26T09:54:58;100240.50;;;26.61;19.63
69187;BME280;56301;56.864;60.554;2024-02-26T09:57:21;100233.78;;;26.66;18.91
69187;BME280;56301;56.864;60.554;2024-02-26T09:59:44;100233.78;;;26.66;19.05
69187;BME280;56301;56.864;60.554;2024-02-26T10:02:15;100218.16;;;26.68;19.51
69187;BME280;56301;56.864;60.554;2024-02-26T10:04:38;100223.59;;;26.68;19.57
69187;BME280;56301;56.864;60.554;2024-02-26T10:07:00;100223.91;;;26.64;19.51
69187;BME280;56301;56.864;60.554;2024-02-26T10:09:23;100226.63;;;26.64;18.90
69187;BME280;56301;56.864;60.554;2024-02-26T10:11:45;100228.66;;;26.62;18.94
69187;BME280;56301;56.864;60.554;2024-02-26T10:14:10;100223.16;;;26.54;19.15
69187;BME280;56301;56.864;60.554;2024-02-26T10:16:33;100229.59;;;26.53;18.97
69187;BME280;56301;56.864;60.554;2024-02-26T10:18:55;100213.50;;;26.52;19.26
69187;BME280;56301;56.864;60.554;2024-02-26T10:21:21;100205.84;;;26.47;19.82
69187;BME280;56301;56.864;60.554;2024-02-26T10:23:44;100202.25;;;26.47;19.48
69187;BME280;56301;56.864;60.554;2024-02-26T10:26:06;100193.53;;;26.43;19.40
69187;BME280;56301;56.864;60.554;2024-02-26T10:28:30;100203.88;;;26.39;19.80
69187;BME280;56301;56.864;60.554;2024-02-26T10:30:54;100182.44;;;26.28;19.70
69187;BME280;56301;56.864;60.554;2024-02-26T10:33:16;100193.16;;;26.30;19.37
69187;BME280;56301;56.864;60.554;2024-02-26T10:35:39;100187.19;;;26.26;19.76
69187;BME280;56301;56.864;60.554;2024-02-26T10:38:02;100190.03;;;26.25;20.11
69187;BME280;56301;56.864;60.554;2024-02-26T10:40:24;100188.50;;;26.22;19.84
69187;BME280;56301;56.864;60.554;2024-02-26T10:42:47;100188.28;;;26.15;19.47
69187;BME280;56301;56.864;60.554;2024-02-26T10:45:09;100192.47;;;26.10;19.61
69187;BME280;56301;56.864;60.554;2024-02-26T10:47:32;100189.41;;;26.05;19.86
69187;BME280;56301;56.864;60.554;2024-02-26T10:49:55;100184.28;;;26.02;20.26
69187;BME280;56301;56.864;60.554;2024-02-26T10:52:18;100174.91;;;25.96;20.11
69187;BME280;56301;56.864;60.554;2024-02-26T10:54:41;100175.94;;;25.95;19.64
69187;BME280;56301;56.864;60.554;2024-02-26T10:57:04;100175.38;;;25.91;20.21
69187;BME280;56301;56.864;60.554;2024-02-26T10:59:27;100181.13;;;25.88;20.35
69187;BME280;56301;56.864;60.554;2024-02-26T11:01:49;100186.00;;;25.85;20.27
69187;BME280;56301;56.864;60.554;2024-02-26T11:04:12;100189.72;;;25.84;20.14
69187;BME280;56301;56.864;60.554;2024-02-26T11:06:35;100185.78;;;25.78;20.12
69187;BME280;56301;56.864;60.554;2024-02-26T11:08:58;100187.94;;;25.75;19.70
69187;BME280;56301;56.864;60.554;2024-02-26T11:11:21;100190.78;;;25.73;19.57
69187;BME280;56301;56.864;60.554;2024-02-26T11:13:45;100183.81;;;25.70;19.64
69187;BME280;56301;56.864;60.554;2024-02-26T11:16:08;100201.41;;;25.66;19.64
69187;BME280;56301;56.864;60.554;2024-02-26T11:18:31;100199.00;;;25.63;19.67
69187;BME280;56301;56.864;60.554;2024-02-26T11:20:54;100202.72;;;25.62;19.58
69187;BME280;56301;56.864;60.554;2024-02-26T11:23:16;100205.72;;;25.59;20.14
69187;BME280;56301;56.864;60.554;2024-02-26T11:25:39;100201.50;;;25.57;20.14
69187;BME280;56301;56.864;60.554;2024-02-26T11:28:06;100197.22;;;25.54;19.56
69187;BME280;56301;56.864;60.554;2024-02-26T11:30:31;100201.81;;;25.54;19.50
69187;BME280;56301;56.864;60.554;2024-02-26T11:32:54;100195.00;;;25.50;19.67
69187;BME280;56301;56.864;60.554;2024-02-26T11:35:17;100190.72;;;25.47;20.30
69187;BME280;56301;56.864;60.554;2024-02-26T11:37:40;100199.00;;;25.45;19.37
69187;BME280;56301;56.864;60.554;2024-02-26T11:40:03;100201.00;;;25.43;20.24
69187;BME280;56301;56.864;60.554;2024-02-26T11:42:26;100189.31;;;25.43;19.87
69187;BME280;56301;56.864;60.554;2024-02-26T11:44:48;100205.16;;;25.38;20.27
69187;BME280;56301;56.864;60.554;2024-02-26T11:47:11;100199.75;;;25.38;19.93
69187;BME280;56301;56.864;60.554;2024-02-26T11:49:34;100202.25;;;25.31;20.19
69187;BME280;56301;56.864;60.554;2024-02-26T11:51:57;100199.97;;;25.27;20.81
69187;BME280;56301;56.864;60.554;2024-02-26T11:54:43;100199.13;;;25.26;20.71
69187;BME280;56301;56.864;60.554;2024-02-26T11:57:02;100198.28;;;25.26;20.15
69187;BME280;56301;56.864;60.554;2024-02-26T11:59:37;100195.75;;;25.24;20.15
69187;BME280;56301;56.864;60.554;2024-02-26T12:02:00;100201.59;;;25.19;20.19
69187;BME280;56301;56.864;60.554;2024-02-26T12:04:26;100205.47;;;25.17;20.69
69187;BME280;56301;56.864;60.554;2024-02-26T12:09:30;100206.06;;;25.11;20.48
69187;BME280;56301;56.864;60.554;2024-02-26T12:11:52;100208.03;;;25.09;20.76
69187;BME280;56301;56.864;60.554;2024-02-26T12:14:17;100207.19;;;25.08;20.50
69187;BME280;56301;56.864;60.554;2024-02-26T12:16:40;100201.75;;;25.08;20.95
69187;BME280;56301;56.864;60.554;2024-02-26T12:19:06;100212.03;;;25.05;20.76